sensor_id;sensor_type;location;lat;lon;timestamp;temperature;humidity
15160;DHT22;7680;48.800;9.680;2024-01-11T00:02:46;-4.70;99.90
15160;DHT22;7680;48.800;9.680;2024-01-11T00:07:49;-4.70;99.90
15160;DHT22;7680;48.800;9.680;2024-01-11T00:12:52;-4.80;99.90
15160;DHT22;7680;48.800;9.680;2024-01-11T00:17:56;-4.90;99.90
15160;DHT22;7680;48.800;9.680;2024-01-11T00:23:00;-4.80;99.90
15160;DHT22;7680;48.800;9.680;2024-01-11T00:28:03;-4.90;99.90
15160;DHT22;7680;48.800;9.680;2024-01-11T00:33:08;-4.90;99.90
15160;DHT22;7680;48.800;9.680;2024-01-11T00:38:11;-5.00;99.90
15160;DHT22;7680;48.800;9.680;2024-01-11T00:43:15;-5.00;99.90
15160;DHT22;7680;48.800;9.680;2024-01-11T00:48:19;-5.10;99.90
15160;DHT22;7680;48.800;9.680;2024-01-11T00:53:22;-5.10;99.90
15160;DHT22;7680;48.800;9.680;2024-01-11T00:58:26;-5.00;99.90
15160;DHT22;7680;48.800;9.680;2024-01-11T01:03:30;-5.20;99.90
15160;DHT22;7680;48.800;9.680;2024-01-11T01:08:33;-5.20;99.90
15160;DHT22;7680;48.800;9.680;2024-01-11T01:13:37;-5.10;99.90
15160;DHT22;7680;48.800;9.680;2024-01-11T01:18:41;-5.20;99.90
15160;DHT22;7680;48.800;9.680;2024-01-11T01:23:45;-5.20;99.90
15160;DHT22;7680;48.800;9.680;2024-01-11T01:28:48;-5.30;99.90
15160;DHT22;7680;48.800;9.680;2024-01-11T01:33:52;-5.30;99.90
15160;DHT22;7680;48.800;9.680;2024-01-11T01:38:56;-5.30;99.90
15160;DHT22;7680;48.800;9.680;2024-01-11T01:43:59;-5.30;99.90
15160;DHT22;7680;48.800;9.680;2024-01-11T01:49:03;-5.40;99.90
15160;DHT22;7680;48.800;9.680;2024-01-11T01:54:07;-5.40;99.90
15160;DHT22;7680;48.800;9.680;2024-01-11T01:59:11;-5.30;99.90
15160;DHT22;7680;48.800;9.680;2024-01-11T02:04:17;-5.30;99.90
15160;DHT22;7680;48.800;9.680;2024-01-11T02:09:20;-5.30;99.90
15160;DHT22;7680;48.800;9.680;2024-01-11T02:14:23;-5.40;99.90
15160;DHT22;7680;48.800;9.680;2024-01-11T02:19:29;-5.40;99.90
15160;DHT22;7680;48.800;9.680;2024-01-11T02:24:34;-5.40;99.90
15160;DHT22;7680;48.800;9.680;2024-01-11T02:29:37;-5.50;99.90
15160;DHT22;7680;48.800;9.680;2024-01-11T02:34:40;-5.40;99.90
15160;DHT22;7680;48.800;9.680;2024-01-11T02:39:45;-5.40;99.90
15160;DHT22;7680;48.800;9.680;2024-01-11T02:44:48;-5.40;99.90
15160;DHT22;7680;48.800;9.680;2024-01-11T02:49:51;-5.40;99.90
15160;DHT22;7680;48.800;9.680;2024-01-11T02:54:56;-5.40;99.90
15160;DHT22;7680;48.800;9.680;2024-01-11T02:59:59;-5.40;99.90
15160;DHT22;7680;48.800;9.680;2024-01-11T03:05:03;-5.50;99.90
15160;DHT22;7680;48.800;9.680;2024-01-11T03:10:08;-5.60;99.90
15160;DHT22;7680;48.800;9.680;2024-01-11T03:15:12;-5.50;99.90
15160;DHT22;7680;48.800;9.680;2024-01-11T03:20:15;-5.60;99.90
15160;DHT22;7680;48.800;9.680;2024-01-11T03:25:23;-5.60;99.90
15160;DHT22;7680;48.800;9.680;2024-01-11T03:30:26;-5.70;99.90
15160;DHT22;7680;48.800;9.680;2024-01-11T03:35:29;-5.70;99.90
15160;DHT22;7680;48.800;9.680;2024-01-11T03:40:34;-5.70;99.90
15160;DHT22;7680;48.800;9.680;2024-01-11T03:45:37;-5.80;99.90
15160;DHT22;7680;48.800;9.680;2024-01-11T03:50:40;-6.00;99.90
15160;DHT22;7680;48.800;9.680;2024-01-11T03:55:45;-6.20;99.90
15160;DHT22;7680;48.800;9.680;2024-01-11T04:00:48;-6.00;99.90
15160;DHT22;7680;48.800;9.680;2024-01-11T04:05:51;-6.00;99.90
15160;DHT22;7680;48.800;9.680;2024-01-11T04:10:55;-6.00;99.90
15160;DHT22;7680;48.800;9.680;2024-01-11T04:15:59;-6.00;99.90
15160;DHT22;7680;48.800;9.680;2024-01-11T04:21:02;-6.10;99.90
15160;DHT22;7680;48.800;9.680;2024-01-11T04:26:06;-6.00;99.90
15160;DHT22;7680;48.800;9.680;2024-01-11T04:31:10;-5.90;99.90
15160;DHT22;7680;48.800;9.680;2024-01-11T04:36:13;-5.90;99.90
15160;DHT22;7680;48.800;9.680;2024-01-11T04:41:18;-5.90;99.90
15160;DHT22;7680;48.800;9.680;2024-01-11T04:46:23;-6.00;99.90
15160;DHT22;7680;48.800;9.680;2024-01-11T04:51:26;-6.00;99.90
15160;DHT22;7680;48.800;9.680;2024-01-11T04:56:31;-6.10;99.90
15160;DHT22;7680;48.800;9.680;2024-01-11T05:01:34;-6.10;99.90
15160;DHT22;7680;48.800;9.680;2024-01-11T05:06:37;-6.20;99.90
15160;DHT22;7680;48.800;9.680;2024-01-11T05:11:42;-6.30;99.90
15160;DHT22;7680;48.800;9.680;2024-01-11T05:16:45;-6.20;99.90
15160;DHT22;7680;48.800;9.680;2024-01-11T05:21:48;-6.30;99.90
15160;DHT22;7680;48.800;9.680;2024-01-11T05:26:53;-6.20;99.90
15160;DHT22;7680;48.800;9.680;2024-01-11T05:31:56;-6.20;99.90
15160;DHT22;7680;48.800;9.680;2024-01-11T05:36:59;-6.20;99.90
15160;DHT22;7680;48.800;9.680;2024-01-11T05:42:04;-6.10;99.90
15160;DHT22;7680;48.800;9.680;2024-01-11T05:47:08;-6.10;99.90
15160;DHT22;7680;48.800;9.680;2024-01-11T05:52:11;-6.20;99.90
15160;DHT22;7680;48.800;9.680;2024-01-11T05:57:15;-6.20;99.90
15160;DHT22;7680;48.800;9.680;2024-01-11T06:02:19;-6.40;99.90
15160;DHT22;7680;48.800;9.680;2024-01-11T06:07:24;-6.30;99.90
15160;DHT22;7680;48.800;9.680;2024-01-11T06:12:29;-6.30;99.90
15160;DHT22;7680;48.800;9.680;2024-01-11T06:17:32;-6.40;99.90
15160;DHT22;7680;48.800;9.680;2024-01-11T06:22:36;-6.40;99.90
15160;DHT22;7680;48.800;9.680;2024-01-11T06:27:41;-6.40;99.90
15160;DHT22;7680;48.800;9.680;2024-01-11T06:32:45;-6.40;99.90
15160;DHT22;7680;48.800;9.680;2024-01-11T06:37:48;-6.40;99.90
15160;DHT22;7680;48.800;9.680;2024-01-11T06:42:53;-6.30;99.90
15160;DHT22;7680;48.800;9.680;2024-01-11T06:47:57;-6.30;99.90
15160;DHT22;7680;48.800;9.680;2024-01-11T06:53:01;-6.40;99.90
15160;DHT22;7680;48.800;9.680;2024-01-11T06:58:06;-6.50;99.90
15160;DHT22;7680;48.800;9.680;2024-01-11T07:03:09;-6.50;99.90
15160;DHT22;7680;48.800;9.680;2024-01-11T07:08:12;-6.50;99.90
15160;DHT22;7680;48.800;9.680;2024-01-11T07:13:16;-6.40;99.90
15160;DHT22;7680;48.800;9.680;2024-01-11T07:18:20;-6.40;99.90
15160;DHT22;7680;48.800;9.680;2024-01-11T07:23:23;-6.30;99.90
15160;DHT22;7680;48.800;9.680;2024-01-11T07:28:28;-6.40;99.90
15160;DHT22;7680;48.800;9.680;2024-01-11T07:33:31;-6.30;99.90
15160;DHT22;7680;48.800;9.680;2024-01-11T07:38:35;-6.20;99.90
15160;DHT22;7680;48.800;9.680;2024-01-11T07:43:39;-6.40;99.90
15160;DHT22;7680;48.800;9.680;2024-01-11T07:48:54;-6.30;99.90
15160;DHT22;7680;48.800;9.680;2024-01-11T07:53:58;-6.30;99.90
15160;DHT22;7680;48.800;9.680;2024-01-11T07:59:02;-6.10;99.90
15160;DHT22;7680;48.800;9.680;2024-01-11T08:04:06;-5.80;99.90
15160;DHT22;7680;48.800;9.680;2024-01-11T08:09:09;-5.40;99.90
15160;DHT22;7680;48.800;9.680;2024-01-11T08:14:16;-5.20;99.90
15160;DHT22;7680;48.800;9.680;2024-01-11T08:19:19;-5.20;99.90
15160;DHT22;7680;48.800;9.680;2024-01-11T08:24:23;-4.90;99.90
15160;DHT22;7680;48.800;9.680;2024-01-11T08:29:28;-4.50;99.90
15160;DHT22;7680;48.800;9.680;2024-01-11T08:34:32;-4.20;99.90
15160;DHT22;7680;48.800;9.680;2024-01-11T08:39:35;-4.10;99.90
15160;DHT22;7680;48.800;9.680;2024-01-11T08:44:42;-3.80;99.90
15160;DHT22;7680;48.800;9.680;2024-01-11T08:49:46;-3.70;99.90
15160;DHT22;7680;48.800;9.680;2024-01-11T08:54:49;-3.50;99.90
15160;DHT22;7680;48.800;9.680;2024-01-11T08:59:53;-3.20;99.90
15160;DHT22;7680;48.800;9.680;2024-01-11T09:04:57;-3.10;99.90
15160;DHT22;7680;48.800;9.680;2024-01-11T09:10:00;-2.80;99.90
15160;DHT22;7680;48.800;9.680;2024-01-11T09:15:05;-2.60;99.90
15160;DHT22;7680;48.800;9.680;2024-01-11T09:20:10;-2.30;99.90
15160;DHT22;7680;48.800;9.680;2024-01-11T09:25:16;-2.10;99.90
15160;DHT22;7680;48.800;9.680;2024-01-11T09:30:20;-2.00;99.90
15160;DHT22;7680;48.800;9.680;2024-01-11T09:35:24;-1.60;99.90
15160;DHT22;7680;48.800;9.680;2024-01-11T09:40:27;-1.60;99.90
15160;DHT22;7680;48.800;9.680;2024-01-11T09:45:32;-1.50;99.90
15160;DHT22;7680;48.800;9.680;2024-01-11T09:50:36;-1.40;99.90
15160;DHT22;7680;48.800;9.680;2024-01-11T09:55:41;-1.00;99.90
15160;DHT22;7680;48.800;9.680;2024-01-11T10:00:46;-0.90;99.90
15160;DHT22;7680;48.800;9.680;2024-01-11T10:05:57;-0.60;99.90
15160;DHT22;7680;48.800;9.680;2024-01-11T10:11:02;-0.50;99.90
15160;DHT22;7680;48.800;9.680;2024-01-11T10:16:08;-0.60;99.90
15160;DHT22;7680;48.800;9.680;2024-01-11T10:21:15;-0.40;99.90
15160;DHT22;7680;48.800;9.680;2024-01-11T10:26:19;-0.50;99.90
15160;DHT22;7680;48.800;9.680;2024-01-11T10:31:24;-0.40;99.90
15160;DHT22;7680;48.800;9.680;2024-01-11T10:36:30;-0.30;99.90
15160;DHT22;7680;48.800;9.680;2024-01-11T10:41:39;-0.10;99.90
15160;DHT22;7680;48.800;9.680;2024-01-11T10:46:45;-0.10;99.90
15160;DHT22;7680;48.800;9.680;2024-01-11T10:51:53;0.00;99.90
15160;DHT22;7680;48.800;9.680;2024-01-11T10:56:59;0.20;99.90
15160;DHT22;7680;48.800;9.680;2024-01-11T11:02:06;0.30;99.90
15160;DHT22;7680;48.800;9.680;2024-01-11T11:07:13;0.20;99.90
15160;DHT22;7680;48.800;9.680;2024-01-11T11:12:18;0.20;99.90
15160;DHT22;7680;48.800;9.680;2024-01-11T11:17:23;0.30;99.90
15160;DHT22;7680;48.800;9.680;2024-01-11T11:22:27;0.50;99.90
15160;DHT22;7680;48.800;9.680;2024-01-11T11:27:30;0.50;99.90
15160;DHT22;7680;48.800;9.680;2024-01-11T11:32:39;0.60;99.90
15160;DHT22;7680;48.800;9.680;2024-01-11T11:37:46;0.70;99.90
15160;DHT22;7680;48.800;9.680;2024-01-11T11:42:50;0.60;99.90
15160;DHT22;7680;48.800;9.680;2024-01-11T11:47:55;0.80;99.90
15160;DHT22;7680;48.800;9.680;2024-01-11T11:52:58;0.80;99.90
15160;DHT22;7680;48.800;9.680;2024-01-11T11:58:02;0.70;99.90
15160;DHT22;7680;48.800;9.680;2024-01-11T12:03:07;0.80;99.90
15160;DHT22;7680;48.800;9.680;2024-01-11T12:08:11;0.90;99.90
15160;DHT22;7680;48.800;9.680;2024-01-11T12:13:14;0.90;99.90
15160;DHT22;7680;48.800;9.680;2024-01-11T12:18:19;0.90;99.90
15160;DHT22;7680;48.800;9.680;2024-01-11T12:23:22;0.90;99.90
15160;DHT22;7680;48.800;9.680;2024-01-11T12:28:26;0.90;99.90
15160;DHT22;7680;48.800;9.680;2024-01-11T12:33:31;1.00;99.90
15160;DHT22;7680;48.800;9.680;2024-01-11T12:38:46;1.00;99.90
15160;DHT22;7680;48.800;9.680;2024-01-11T12:43:54;1.00;99.90
15160;DHT22;7680;48.800;9.680;2024-01-11T12:48:59;1.10;99.90
15160;DHT22;7680;48.800;9.680;2024-01-11T12:54:02;1.10;99.90
15160;DHT22;7680;48.800;9.680;2024-01-11T12:59:07;1.10;99.90
15160;DHT22;7680;48.800;9.680;2024-01-11T13:04:12;1.20;99.90
15160;DHT22;7680;48.800;9.680;2024-01-11T13:09:16;1.30;99.90
15160;DHT22;7680;48.800;9.680;2024-01-11T13:14:19;1.30;99.90
15160;DHT22;7680;48.800;9.680;2024-01-11T13:19:24;1.30;99.90
15160;DHT22;7680;48.800;9.680;2024-01-11T13:24:28;1.40;99.90
15160;DHT22;7680;48.800;9.680;2024-01-11T13:29:31;1.30;99.90
15160;DHT22;7680;48.800;9.680;2024-01-11T13:34:36;1.30;99.90
15160;DHT22;7680;48.800;9.680;2024-01-11T13:39:39;1.30;99.90
15160;DHT22;7680;48.800;9.680;2024-01-11T13:44:43;1.30;99.90
15160;DHT22;7680;48.800;9.680;2024-01-11T13:49:47;1.20;99.90
15160;DHT22;7680;48.800;9.680;2024-01-11T13:54:51;1.40;99.90
15160;DHT22;7680;48.800;9.680;2024-01-11T13:59:54;1.30;99.90
15160;DHT22;7680;48.800;9.680;2024-01-11T14:04:58;1.30;99.90
15160;DHT22;7680;48.800;9.680;2024-01-11T14:10:02;1.10;99.90
15160;DHT22;7680;48.800;9.680;2024-01-11T14:15:07;1.10;99.90
15160;DHT22;7680;48.800;9.680;2024-01-11T14:20:14;1.10;99.90
15160;DHT22;7680;48.800;9.680;2024-01-11T14:25:19;1.00;99.90
15160;DHT22;7680;48.800;9.680;2024-01-11T14:30:23;1.00;99.90
15160;DHT22;7680;48.800;9.680;2024-01-11T14:35:28;0.90;99.90
15160;DHT22;7680;48.800;9.680;2024-01-11T14:40:33;0.80;99.90
15160;DHT22;7680;48.800;9.680;2024-01-11T14:45:36;0.70;99.90
15160;DHT22;7680;48.800;9.680;2024-01-11T14:50:41;0.70;99.90
15160;DHT22;7680;48.800;9.680;2024-01-11T14:55:45;0.60;99.90
15160;DHT22;7680;48.800;9.680;2024-01-11T15:00:48;0.60;99.90
15160;DHT22;7680;48.800;9.680;2024-01-11T15:05:53;0.50;99.90
15160;DHT22;7680;48.800;9.680;2024-01-11T15:10:57;0.40;99.90
15160;DHT22;7680;48.800;9.680;2024-01-11T15:16:00;0.30;99.90
15160;DHT22;7680;48.800;9.680;2024-01-11T15:21:05;0.10;99.90
15160;DHT22;7680;48.800;9.680;2024-01-11T15:26:08;0.00;99.90
15160;DHT22;7680;48.800;9.680;2024-01-11T15:31:11;-0.20;99.90
15160;DHT22;7680;48.800;9.680;2024-01-11T15:36:17;-0.40;99.90
15160;DHT22;7680;48.800;9.680;2024-01-11T15:41:21;-0.50;99.90
15160;DHT22;7680;48.800;9.680;2024-01-11T15:46:24;-0.70;99.90
15160;DHT22;7680;48.800;9.680;2024-01-11T15:51:29;-0.80;99.90
15160;DHT22;7680;48.800;9.680;2024-01-11T15:56:32;-0.90;99.90
15160;DHT22;7680;48.800;9.680;2024-01-11T16:01:35;-1.10;99.90
15160;DHT22;7680;48.800;9.680;2024-01-11T16:06:58;-1.30;99.90
15160;DHT22;7680;48.800;9.680;2024-01-11T16:12:02;-1.40;99.90
15160;DHT22;7680;48.800;9.680;2024-01-11T16:17:07;-1.40;99.90
15160;DHT22;7680;48.800;9.680;2024-01-11T16:22:12;-1.60;99.90
15160;DHT22;7680;48.800;9.680;2024-01-11T16:27:17;-1.70;99.90
15160;DHT22;7680;48.800;9.680;2024-01-11T16:32:20;-1.80;99.90
15160;DHT22;7680;48.800;9.680;2024-01-11T16:37:25;-1.80;99.90
15160;DHT22;7680;48.800;9.680;2024-01-11T16:42:28;-1.90;99.90
15160;DHT22;7680;48.800;9.680;2024-01-11T16:47:31;-1.90;99.90
15160;DHT22;7680;48.800;9.680;2024-01-11T16:52:39;-2.10;99.90
15160;DHT22;7680;48.800;9.680;2024-01-11T16:57:42;-2.10;99.90
15160;DHT22;7680;48.800;9.680;2024-01-11T17:02:45;-2.20;99.90
15160;DHT22;7680;48.800;9.680;2024-01-11T17:07:50;-2.30;99.90
15160;DHT22;7680;48.800;9.680;2024-01-11T17:12:53;-2.30;99.90
15160;DHT22;7680;48.800;9.680;2024-01-11T17:17:56;-2.30;99.90
15160;DHT22;7680;48.800;9.680;2024-01-11T17:23:01;-2.40;99.90
15160;DHT22;7680;48.800;9.680;2024-01-11T17:28:05;-2.40;99.90
15160;DHT22;7680;48.800;9.680;2024-01-11T17:33:08;-2.40;99.90
15160;DHT22;7680;48.800;9.680;2024-01-11T17:38:13;-2.40;99.90
15160;DHT22;7680;48.800;9.680;2024-01-11T17:43:16;-2.40;99.90
15160;DHT22;7680;48.800;9.680;2024-01-11T17:48:20;-2.40;99.90
15160;DHT22;7680;48.800;9.680;2024-01-11T17:53:28;-2.50;99.90
15160;DHT22;7680;48.800;9.680;2024-01-11T17:58:31;-2.40;99.90
15160;DHT22;7680;48.800;9.680;2024-01-11T18:03:34;-2.60;99.90
15160;DHT22;7680;48.800;9.680;2024-01-11T18:08:39;-2.60;99.90
15160;DHT22;7680;48.800;9.680;2024-01-11T18:13:42;-2.80;99.90
15160;DHT22;7680;48.800;9.680;2024-01-11T18:18:46;-2.90;99.90
15160;DHT22;7680;48.800;9.680;2024-01-11T18:23:51;-2.90;99.90
15160;DHT22;7680;48.800;9.680;2024-01-11T18:28:55;-2.90;99.90
15160;DHT22;7680;48.800;9.680;2024-01-11T18:33:58;-2.90;99.90
15160;DHT22;7680;48.800;9.680;2024-01-11T18:39:04;-3.00;99.90
15160;DHT22;7680;48.800;9.680;2024-01-11T18:44:08;-3.10;99.90
15160;DHT22;7680;48.800;9.680;2024-01-11T18:49:12;-3.20;99.90
15160;DHT22;7680;48.800;9.680;2024-01-11T18:54:17;-3.20;99.90
15160;DHT22;7680;48.800;9.680;2024-01-11T18:59:20;-3.30;99.90
15160;DHT22;7680;48.800;9.680;2024-01-11T19:04:23;-3.40;99.90
15160;DHT22;7680;48.800;9.680;2024-01-11T19:09:28;-3.50;99.90
15160;DHT22;7680;48.800;9.680;2024-01-11T19:14:31;-3.50;99.90
15160;DHT22;7680;48.800;9.680;2024-01-11T19:19:36;-3.20;99.90
15160;DHT22;7680;48.800;9.680;2024-01-11T19:24:41;-3.30;99.90
15160;DHT22;7680;48.800;9.680;2024-01-11T19:29:44;-3.30;99.90
15160;DHT22;7680;48.800;9.680;2024-01-11T19:34:47;-3.50;99.90
15160;DHT22;7680;48.800;9.680;2024-01-11T19:39:52;-3.60;99.90
15160;DHT22;7680;48.800;9.680;2024-01-11T19:44:55;-3.70;99.90
15160;DHT22;7680;48.800;9.680;2024-01-11T19:49:59;-3.90;99.90
15160;DHT22;7680;48.800;9.680;2024-01-11T19:55:04;-3.90;99.90
15160;DHT22;7680;48.800;9.680;2024-01-11T20:00:09;-3.90;99.90
15160;DHT22;7680;48.800;9.680;2024-01-11T20:05:12;-4.00;99.90
15160;DHT22;7680;48.800;9.680;2024-01-11T20:10:17;-4.00;99.90
15160;DHT22;7680;48.800;9.680;2024-01-11T20:15:21;-4.20;99.90
15160;DHT22;7680;48.800;9.680;2024-01-11T20:20:24;-4.00;99.90
15160;DHT22;7680;48.800;9.680;2024-01-11T20:25:29;-4.20;99.90
15160;DHT22;7680;48.800;9.680;2024-01-11T20:30:32;-4.20;99.90
15160;DHT22;7680;48.800;9.680;2024-01-11T20:35:36;-4.20;99.90
15160;DHT22;7680;48.800;9.680;2024-01-11T20:40:40;-4.20;99.90
15160;DHT22;7680;48.800;9.680;2024-01-11T20:45:43;-4.40;99.90
15160;DHT22;7680;48.800;9.680;2024-01-11T20:50:47;-4.50;99.90
15160;DHT22;7680;48.800;9.680;2024-01-11T20:55:51;-4.40;99.90
15160;DHT22;7680;48.800;9.680;2024-01-11T21:00:54;-4.40;99.90
15160;DHT22;7680;48.800;9.680;2024-01-11T21:05:58;-4.40;99.90
15160;DHT22;7680;48.800;9.680;2024-01-11T21:11:03;-4.40;99.90
15160;DHT22;7680;48.800;9.680;2024-01-11T21:16:06;-4.50;99.90
15160;DHT22;7680;48.800;9.680;2024-01-11T21:21:09;-4.50;99.90
15160;DHT22;7680;48.800;9.680;2024-01-11T21:26:13;-4.40;99.90
15160;DHT22;7680;48.800;9.680;2024-01-11T21:31:17;-4.50;99.90
15160;DHT22;7680;48.800;9.680;2024-01-11T21:36:21;-4.50;99.90
15160;DHT22;7680;48.800;9.680;2024-01-11T21:41:27;-4.60;99.90
15160;DHT22;7680;48.800;9.680;2024-01-11T21:46:30;-4.60;99.90
15160;DHT22;7680;48.800;9.680;2024-01-11T21:51:33;-4.60;99.90
15160;DHT22;7680;48.800;9.680;2024-01-11T21:56:37;-4.60;99.90
15160;DHT22;7680;48.800;9.680;2024-01-11T22:01:41;-4.80;99.90
15160;DHT22;7680;48.800;9.680;2024-01-11T22:06:45;-4.80;99.90
15160;DHT22;7680;48.800;9.680;2024-01-11T22:11:49;-4.80;99.90
15160;DHT22;7680;48.800;9.680;2024-01-11T22:16:53;-4.80;99.90
15160;DHT22;7680;48.800;9.680;2024-01-11T22:21:56;-4.90;99.90
15160;DHT22;7680;48.800;9.680;2024-01-11T22:27:00;-4.90;99.90
15160;DHT22;7680;48.800;9.680;2024-01-11T22:32:04;-4.90;99.90
15160;DHT22;7680;48.800;9.680;2024-01-11T22:37:07;-5.10;99.90
15160;DHT22;7680;48.800;9.680;2024-01-11T22:42:12;-5.00;99.90
15160;DHT22;7680;48.800;9.680;2024-01-11T22:47:15;-5.00;99.90
15160;DHT22;7680;48.800;9.680;2024-01-11T22:52:18;-5.10;99.90
15160;DHT22;7680;48.800;9.680;2024-01-11T22:57:23;-5.10;99.90
15160;DHT22;7680;48.800;9.680;2024-01-11T23:02:26;-5.10;99.90
15160;DHT22;7680;48.800;9.680;2024-01-11T23:07:29;-5.20;99.90
15160;DHT22;7680;48.800;9.680;2024-01-11T23:12:34;-5.30;99.90
15160;DHT22;7680;48.800;9.680;2024-01-11T23:17:37;-5.30;99.90
15160;DHT22;7680;48.800;9.680;2024-01-11T23:22:41;-5.30;99.90
15160;DHT22;7680;48.800;9.680;2024-01-11T23:27:45;-5.30;99.90
15160;DHT22;7680;48.800;9.680;2024-01-11T23:32:48;-5.40;99.90
15160;DHT22;7680;48.800;9.680;2024-01-11T23:37:52;-5.50;99.90
15160;DHT22;7680;48.800;9.680;2024-01-11T23:42:57;-5.40;99.90
15160;DHT22;7680;48.800;9.680;2024-01-11T23:48:00;-5.40;99.90
15160;DHT22;7680;48.800;9.680;2024-01-11T23:53:03;-5.40;99.90
15160;DHT22;7680;48.800;9.680;2024-01-11T23:58:08;-5.40;99.90
